Time;durP1;ratioP1;P1;durP2;ratioP2;P2;SDS_P1;SDS_P2;PMS_P1;PMS_P2;Temp;Humidity;BMP_temperature;BMP_pressure;BME280_temperature;BME280_humidity;BME280_pressure;Samples;Min_cycle;Max_cycle;Signal;HPM_P1;HPM_P2
2023/06/02 00:02:29;;;;;;;10.10;6.65;;;15.10;99.90;;;;;;5019336;28;20101;-74
2023/06/02 00:04:57;;;;;;;8.43;6.80;;;15.10;99.90;;;;;;5013537;28;20440;-74
2023/06/02 00:07:29;;;;;;;13.30;6.95;;;15.10;99.90;;;;;;5018985;28;20288;-73
2023/06/02 00:09:55;;;;;;;8.90;6.75;;;15.00;99.90;;;;;;5017289;28;20018;-73
2023/06/02 00:12:21;;;;;;;10.50;6.85;;;15.10;99.90;;;;;;5019583;28;20050;-73
2023/06/02 00:14:48;;;;;;;10.05;6.50;;;15.00;99.90;;;;;;5019652;28;20022;-74
2023/06/02 00:17:14;;;;;;;9.00;6.78;;;15.00;99.90;;;;;;5019369;28;20397;-73
2023/06/02 00:19:43;;;;;;;9.65;6.60;;;15.00;99.90;;;;;;5019602;28;20037;-73
2023/06/02 00:22:13;;;;;;;8.93;6.50;;;14.90;99.90;;;;;;5000948;28;20033;-74
2023/06/02 00:24:42;;;;;;;9.43;7.13;;;14.90;99.90;;;;;;5001884;28;20052;-73
2023/06/02 00:27:09;;;;;;;7.30;6.10;;;14.70;99.90;;;;;;5011324;28;20084;-73
2023/06/02 00:29:35;;;;;;;8.73;6.65;;;14.70;99.90;;;;;;5019530;28;20022;-73
2023/06/02 00:32:02;;;;;;;10.77;6.40;;;14.60;99.90;;;;;;5000595;28;20018;-73
2023/06/02 00:34:27;;;;;;;9.23;7.10;;;14.60;99.90;;;;;;5001652;28;20080;-73
2023/06/02 00:36:53;;;;;;;9.35;7.40;;;14.60;99.90;;;;;;5019028;28;20030;-73
2023/06/02 00:39:19;;;;;;;8.90;6.85;;;14.50;99.90;;;;;;5001439;28;20034;-73
2023/06/02 00:41:45;;;;;;;8.45;7.43;;;14.50;99.90;;;;;;5019180;28;20073;-73
2023/06/02 00:44:11;;;;;;;9.80;7.45;;;14.50;99.90;;;;;;5019030;28;20034;-73
2023/06/02 00:46:37;;;;;;;8.73;6.97;;;14.50;99.90;;;;;;5018768;28;20021;-74
2023/06/02 00:49:03;;;;;;;9.63;7.47;;;14.50;99.90;;;;;;5019042;28;20033;-74
2023/06/02 00:51:29;;;;;;;11.13;7.80;;;14.40;99.90;;;;;;5019230;28;20504;-73
2023/06/02 00:53:55;;;;;;;10.95;7.80;;;14.40;99.90;;;;;;5001773;28;20034;-73
2023/06/02 00:56:23;;;;;;;13.60;8.73;;;14.40;99.90;;;;;;5015324;28;20126;-73
2023/06/02 00:58:49;;;;;;;9.52;7.82;;;14.30;99.90;;;;;;4999215;28;20502;-73
2023/06/02 01:01:18;;;;;;;9.20;7.32;;;14.30;99.90;;;;;;4998934;28;20037;-73
2023/06/02 01:03:47;;;;;;;10.48;7.85;;;14.40;99.90;;;;;;4983881;28;20040;-74
2023/06/02 01:06:14;;;;;;;9.68;8.10;;;14.30;99.90;;;;;;5001238;28;20052;-73
2023/06/02 01:08:40;;;;;;;12.43;8.23;;;14.20;99.90;;;;;;4998949;28;20018;-74
2023/06/02 01:11:07;;;;;;;9.30;7.10;;;14.10;99.90;;;;;;5008315;28;20025;-74
2023/06/02 01:13:34;;;;;;;11.63;7.82;;;14.00;99.90;;;;;;5000735;28;20026;-73
2023/06/02 01:15:59;;;;;;;9.38;7.47;;;14.00;99.90;;;;;;4999091;28;20018;-73
2023/06/02 01:18:29;;;;;;;12.82;8.70;;;14.00;99.90;;;;;;4998640;28;20033;-74
2023/06/02 01:20:59;;;;;;;14.98;9.35;;;14.00;99.90;;;;;;4998687;28;20028;-74
2023/06/02 01:23:33;;;;;;;15.93;7.57;;;14.00;99.90;;;;;;4998582;28;20421;-74
2023/06/02 01:26:00;;;;;;;11.90;8.02;;;14.00;99.90;;;;;;4981019;28;20058;-74
2023/06/02 01:28:26;;;;;;;10.50;8.15;;;14.00;99.90;;;;;;4978092;28;20023;-74
2023/06/02 01:31:08;;;;;;;11.10;8.43;;;14.00;99.90;;;;;;4992249;28;20037;-73
2023/06/02 01:33:55;;;;;;;9.73;7.93;;;14.00;99.90;;;;;;4998771;28;20023;-73
2023/06/02 01:36:22;;;;;;;11.45;7.63;;;13.80;99.90;;;;;;4992283;28;20513;-73
2023/06/02 01:38:49;;;;;;;10.50;8.18;;;13.80;99.90;;;;;;4998806;28;20497;-74
2023/06/02 01:41:18;;;;;;;9.20;7.35;;;13.80;99.90;;;;;;4998088;28;20038;-73
2023/06/02 01:43:44;;;;;;;11.35;8.15;;;13.80;99.90;;;;;;4998501;28;20022;-74
2023/06/02 01:46:11;;;;;;;9.43;8.23;;;13.80;99.90;;;;;;4980381;28;20065;-73
2023/06/02 01:48:36;;;;;;;11.70;8.48;;;13.80;99.90;;;;;;4998345;28;20548;-74
2023/06/02 01:51:02;;;;;;;10.77;8.50;;;13.80;99.90;;;;;;4998108;28;20504;-74
2023/06/02 01:53:28;;;;;;;10.85;8.27;;;13.80;99.90;;;;;;4998464;28;20027;-73
2023/06/02 01:55:54;;;;;;;9.85;7.78;;;13.80;99.90;;;;;;5001998;28;20029;-73
2023/06/02 01:58:21;;;;;;;10.98;8.13;;;13.70;99.90;;;;;;5005450;28;20156;-73
2023/06/02 02:00:46;;;;;;;9.60;8.07;;;13.70;99.90;;;;;;4977068;28;20022;-73
2023/06/02 02:03:12;;;;;;;8.98;7.55;;;13.60;99.90;;;;;;4991140;28;20029;-73
2023/06/02 02:05:38;;;;;;;11.63;8.07;;;13.70;99.90;;;;;;4997830;28;20106;-73
2023/06/02 02:08:04;;;;;;;13.48;9.52;;;13.60;99.90;;;;;;4998110;28;20026;-73
2023/06/02 02:10:30;;;;;;;12.48;8.43;;;13.50;99.90;;;;;;4997559;28;20553;-73
2023/06/02 02:12:56;;;;;;;10.45;8.23;;;13.50;99.90;;;;;;4998140;28;20041;-73
2023/06/02 02:15:22;;;;;;;11.25;8.48;;;13.50;99.90;;;;;;4980221;28;20053;-73
2023/06/02 02:17:49;;;;;;;13.50;9.25;;;13.40;99.90;;;;;;4997938;28;20026;-73
2023/06/02 02:20:16;;;;;;;9.82;8.38;;;13.40;99.90;;;;;;4997733;28;20045;-73
2023/06/02 02:22:42;;;;;;;11.25;9.00;;;13.40;99.90;;;;;;4997794;28;20045;-73
2023/06/02 02:25:08;;;;;;;9.55;8.55;;;13.40;99.90;;;;;;4976908;28;20511;-73
2023/06/02 02:27:35;;;;;;;11.50;8.90;;;13.40;99.90;;;;;;4991445;28;20093;-73
2023/06/02 02:30:00;;;;;;;14.73;8.73;;;13.40;99.90;;;;;;4996478;28;20015;-73
2023/06/02 02:32:26;;;;;;;11.55;8.75;;;13.40;99.90;;;;;;4996863;28;20049;-73
2023/06/02 02:34:52;;;;;;;10.07;8.73;;;13.40;99.90;;;;;;4997632;28;20056;-73
2023/06/02 02:37:19;;;;;;;9.90;7.80;;;13.30;99.90;;;;;;4997616;28;20071;-74
2023/06/02 02:39:45;;;;;;;14.15;8.57;;;13.30;99.90;;;;;;4997389;28;20018;-73
2023/06/02 02:42:11;;;;;;;13.10;9.20;;;13.30;99.90;;;;;;4997549;28;20097;-73
2023/06/02 02:44:36;;;;;;;11.18;9.00;;;13.30;99.90;;;;;;4997295;28;20053;-74
2023/06/02 02:47:02;;;;;;;11.70;8.32;;;13.20;99.90;;;;;;4997316;28;20032;-73
2023/06/02 02:49:28;;;;;;;11.32;8.50;;;13.10;99.90;;;;;;4997542;28;20069;-73
2023/06/02 02:51:54;;;;;;;14.57;8.55;;;13.00;99.90;;;;;;4997348;28;20379;-73
2023/06/02 02:54:20;;;;;;;10.20;8.35;;;13.00;99.90;;;;;;4997507;28;20038;-74
2023/06/02 02:56:46;;;;;;;10.02;8.00;;;13.00;99.90;;;;;;4997332;28;20457;-74
2023/06/02 02:59:15;;;;;;;10.75;8.82;;;13.00;99.90;;;;;;4997303;28;20122;-74
2023/06/02 03:01:44;;;;;;;11.15;8.77;;;12.90;99.90;;;;;;4989996;28;20025;-73
2023/06/02 03:04:21;;;;;;;11.77;7.90;;;12.90;99.90;;;;;;4997264;28;20114;-74
2023/06/02 03:06:49;;;;;;;15.00;9.23;;;12.90;99.90;;;;;;4995399;28;20406;-73
2023/06/02 03:09:16;;;;;;;12.88;9.50;;;12.90;99.90;;;;;;4979556;28;20105;-74
2023/06/02 03:11:42;;;;;;;13.68;9.95;;;13.00;99.90;;;;;;4996645;28;20045;-73
2023/06/02 03:14:08;;;;;;;13.98;9.45;;;12.90;99.90;;;;;;4979837;28;20058;-73
2023/06/02 03:16:34;;;;;;;10.88;8.88;;;13.00;99.90;;;;;;4996890;28;20069;-73
2023/06/02 03:19:02;;;;;;;14.43;9.90;;;13.00;99.90;;;;;;4997470;28;20029;-73
2023/06/02 03:21:31;;;;;;;12.23;9.60;;;13.00;99.90;;;;;;4997122;28;20073;-74
2023/06/02 03:24:00;;;;;;;15.20;10.85;;;13.00;99.90;;;;;;4997196;28;20034;-73
2023/06/02 03:26:26;;;;;;;16.85;11.43;;;13.00;99.90;;;;;;4996867;28;20386;-74
2023/06/02 03:28:55;;;;;;;14.68;11.63;;;13.00;99.90;;;;;;4997315;28;20027;-74
2023/06/02 03:31:24;;;;;;;15.52;12.00;;;12.90;99.90;;;;;;4996698;28;20081;-74
2023/06/02 03:33:49;;;;;;;18.42;13.00;;;12.90;99.90;;;;;;4997265;28;20036;-73
2023/06/02 03:36:17;;;;;;;21.75;13.80;;;12.90;99.90;;;;;;4996926;28;20402;-74
2023/06/02 03:38:43;;;;;;;23.52;13.93;;;12.90;99.90;;;;;;4997279;28;20593;-74
2023/06/02 03:41:09;;;;;;;17.30;12.60;;;12.90;99.90;;;;;;4979118;28;20049;-73
2023/06/02 03:43:35;;;;;;;17.63;13.80;;;12.90;99.90;;;;;;5000117;28;20065;-73
2023/06/02 03:46:00;;;;;;;19.65;12.57;;;13.00;99.90;;;;;;5000315;28;20117;-73
2023/06/02 03:48:26;;;;;;;18.20;12.05;;;13.00;99.90;;;;;;5000781;28;20542;-74
2023/06/02 03:50:51;;;;;;;14.00;11.60;;;13.00;99.90;;;;;;5000585;28;20014;-74
2023/06/02 03:53:17;;;;;;;14.25;11.50;;;13.00;99.90;;;;;;5000674;28;20038;-74
2023/06/02 03:55:43;;;;;;;17.70;11.10;;;13.00;99.90;;;;;;5000451;28;20034;-74
2023/06/02 03:58:08;;;;;;;14.18;10.73;;;13.00;99.90;;;;;;5000236;28;20054;-73
2023/06/02 04:00:34;;;;;;;13.90;10.80;;;12.90;99.90;;;;;;4982643;28;20023;-73
2023/06/02 04:03:00;;;;;;;16.45;10.70;;;12.90;99.90;;;;;;5000696;28;20044;-73
2023/06/02 04:05:26;;;;;;;13.32;10.65;;;13.00;99.90;;;;;;5000102;28;20019;-73
2023/06/02 04:07:52;;;;;;;15.55;11.63;;;12.90;99.90;;;;;;4999476;28;20030;-73
2023/06/02 04:10:18;;;;;;;13.52;11.63;;;12.90;99.90;;;;;;4999944;28;20478;-73
2023/06/02 04:12:44;;;;;;;12.98;10.88;;;12.90;99.90;;;;;;4984005;28;20129;-73
2023/06/02 04:15:09;;;;;;;15.70;10.38;;;12.90;99.90;;;;;;4999729;28;20023;-73
2023/06/02 04:17:36;;;;;;;14.02;11.75;;;12.80;99.90;;;;;;5000293;28;20568;-73
2023/06/02 04:20:02;;;;;;;14.40;10.88;;;12.90;99.90;;;;;;4981474;28;20491;-73
2023/06/02 04:22:28;;;;;;;12.50;10.77;;;12.90;99.90;;;;;;5000054;28;20038;-73
2023/06/02 04:24:54;;;;;;;16.42;10.85;;;12.80;99.90;;;;;;4982302;28;20029;-73
2023/06/02 04:27:19;;;;;;;15.02;12.20;;;12.80;99.90;;;;;;4999769;28;20027;-73
2023/06/02 04:29:45;;;;;;;15.10;11.15;;;12.80;99.90;;;;;;4999893;28;20026;-73
2023/06/02 04:32:11;;;;;;;15.93;12.52;;;12.80;99.90;;;;;;4999757;28;20019;-73
2023/06/02 04:34:36;;;;;;;17.17;12.05;;;12.80;99.90;;;;;;4999725;28;20026;-74
2023/06/02 04:37:02;;;;;;;12.82;11.15;;;12.80;99.90;;;;;;4999782;28;20109;-74
2023/06/02 04:39:28;;;;;;;17.70;12.00;;;12.90;99.90;;;;;;4998263;28;20030;-73
2023/06/02 04:41:56;;;;;;;14.05;11.25;;;12.80;99.90;;;;;;4999809;28;20438;-74
2023/06/02 04:44:23;;;;;;;14.88;11.77;;;12.90;99.90;;;;;;4999554;28;20029;-74
2023/06/02 04:46:49;;;;;;;14.18;11.57;;;13.00;99.90;;;;;;4999120;28;20031;-73
2023/06/02 04:49:15;;;;;;;13.32;11.00;;;13.10;99.90;;;;;;4999416;28;20015;-74
2023/06/02 04:51:41;;;;;;;17.85;12.55;;;13.10;99.90;;;;;;4999553;28;20501;-74
2023/06/02 04:54:07;;;;;;;14.55;10.85;;;13.10;99.90;;;;;;4998802;28;20026;-73
2023/06/02 04:56:34;;;;;;;13.95;11.20;;;13.20;99.90;;;;;;4999496;28;20046;-73
2023/06/02 04:59:00;;;;;;;13.60;10.00;;;13.30;99.90;;;;;;5018597;28;20025;-73
2023/06/02 05:01:28;;;;;;;18.67;11.10;;;13.30;99.90;;;;;;5018571;28;20437;-73
2023/06/02 05:03:54;;;;;;;12.18;10.88;;;13.40;99.90;;;;;;5021581;28;20019;-73
2023/06/02 05:06:20;;;;;;;14.82;11.05;;;13.50;99.90;;;;;;5018729;28;20026;-74
2023/06/02 05:08:46;;;;;;;15.38;11.00;;;13.40;99.90;;;;;;5018588;28;20045;-73
2023/06/02 05:11:11;;;;;;;15.13;10.38;;;13.50;99.90;;;;;;5000765;28;20493;-74
2023/06/02 05:13:37;;;;;;;13.60;10.48;;;13.50;99.90;;;;;;5018577;28;20025;-74
2023/06/02 05:16:03;;;;;;;13.75;10.40;;;13.60;99.90;;;;;;5018393;28;20026;-74
2023/06/02 05:18:29;;;;;;;18.50;10.82;;;13.70;99.90;;;;;;5018523;28;20030;-74
2023/06/02 05:20:55;;;;;;;15.10;10.80;;;13.90;99.90;;;;;;5018485;28;20029;-74
2023/06/02 05:23:21;;;;;;;12.25;10.48;;;13.90;99.90;;;;;;5017475;28;20026;-73
2023/06/02 05:25:48;;;;;;;14.20;9.75;;;14.00;99.90;;;;;;5000803;28;20030;-74
2023/06/02 05:28:14;;;;;;;14.10;10.05;;;14.10;99.90;;;;;;5018310;28;20406;-73
2023/06/02 05:30:40;;;;;;;14.52;10.77;;;14.20;99.90;;;;;;5018316;28;20025;-73
2023/06/02 05:33:05;;;;;;;11.75;9.63;;;14.30;99.90;;;;;;5018196;28;20103;-73
2023/06/02 05:35:31;;;;;;;12.52;9.57;;;14.50;99.90;;;;;;5018312;28;20030;-73
2023/06/02 05:37:57;;;;;;;11.35;8.70;;;14.50;99.90;;;;;;5000521;28;20093;-73
2023/06/02 05:40:22;;;;;;;12.27;9.10;;;14.50;99.90;;;;;;5018033;28;20053;-73
2023/06/02 05:42:48;;;;;;;13.15;9.70;;;14.60;99.90;;;;;;5017834;28;20513;-73
2023/06/02 05:45:14;;;;;;;11.82;9.32;;;14.70;99.90;;;;;;5017912;28;20034;-73
2023/06/02 05:47:39;;;;;;;11.68;10.02;;;14.80;99.90;;;;;;5017739;28;20030;-74
2023/06/02 05:50:05;;;;;;;18.23;9.98;;;14.90;99.90;;;;;;5018308;28;20442;-73
2023/06/02 05:52:31;;;;;;;11.85;9.15;;;15.00;99.90;;;;;;5017798;28;20018;-73
2023/06/02 05:54:56;;;;;;;14.05;10.02;;;15.00;99.90;;;;;;5018150;28;20398;-73
2023/06/02 05:57:22;;;;;;;11.82;10.52;;;15.10;99.90;;;;;;5009207;28;20037;-73
2023/06/02 05:59:48;;;;;;;18.35;10.40;;;15.20;99.90;;;;;;5000773;28;20029;-73
2023/06/02 06:02:14;;;;;;;13.05;9.95;;;15.40;99.90;;;;;;4997958;28;20026;-73
2023/06/02 06:04:39;;;;;;;11.77;9.70;;;15.60;99.90;;;;;;4980549;28;20094;-73
2023/06/02 06:07:05;;;;;;;15.93;9.88;;;15.70;99.90;;;;;;4997883;28;20402;-73
2023/06/02 06:09:31;;;;;;;13.70;10.32;;;15.80;99.90;;;;;;4998123;28;20553;-72
2023/06/02 06:11:57;;;;;;;14.63;9.93;;;15.90;99.90;;;;;;4985755;28;20023;-73
2023/06/02 06:14:22;;;;;;;13.52;9.73;;;16.10;99.90;;;;;;4997913;28;20398;-73
2023/06/02 06:16:48;;;;;;;13.15;9.48;;;16.30;99.90;;;;;;4997714;28;20030;-73
2023/06/02 06:19:13;;;;;;;12.60;10.38;;;16.50;99.90;;;;;;4997802;28;20463;-73
2023/06/02 06:21:39;;;;;;;16.05;9.38;;;16.70;99.90;;;;;;4997557;28;20086;-72
2023/06/02 06:24:06;;;;;;;32.97;13.10;;;16.90;99.90;;;;;;4997810;28;20026;-72
2023/06/02 06:26:32;;;;;;;15.30;8.55;;;17.10;99.90;;;;;;4979949;28;20030;-73
2023/06/02 06:28:57;;;;;;;14.27;10.43;;;17.20;99.90;;;;;;4997629;28;20015;-72
2023/06/02 06:31:24;;;;;;;10.80;8.75;;;17.40;99.90;;;;;;4997214;28;20085;-72
2023/06/02 06:33:50;;;;;;;11.93;8.57;;;17.70;99.90;;;;;;4997607;28;20017;-72
2023/06/02 06:36:15;;;;;;;11.02;7.90;;;17.80;99.90;;;;;;4997533;28;20026;-72
2023/06/02 06:38:41;;;;;;;10.80;9.15;;;17.90;99.90;;;;;;4997579;28;20049;-72
2023/06/02 06:41:07;;;;;;;14.23;9.18;;;18.10;99.90;;;;;;4997265;28;20033;-72
2023/06/02 06:43:33;;;;;;;14.05;9.50;;;18.30;99.90;;;;;;4997598;28;20023;-72
2023/06/02 06:46:01;;;;;;;12.65;8.10;;;18.60;99.90;;;;;;4997193;28;20105;-72
2023/06/02 06:48:27;;;;;;;9.20;8.13;;;18.60;99.90;;;;;;4980055;28;20053;-72
2023/06/02 06:50:53;;;;;;;11.60;7.82;;;18.60;99.90;;;;;;4997480;28;20027;-72
2023/06/02 06:53:19;;;;;;;11.00;7.82;;;18.70;99.90;;;;;;4997487;28;20076;-72
2023/06/02 06:55:46;;;;;;;8.68;7.60;;;18.70;99.90;;;;;;4997281;28;20050;-72
2023/06/02 06:58:11;;;;;;;10.77;7.75;;;18.80;99.90;;;;;;4997018;28;20046;-72
2023/06/02 07:00:38;;;;;;;12.75;7.45;;;18.90;99.90;;;;;;4979657;28;20101;-72
2023/06/02 07:03:04;;;;;;;9.50;7.40;;;19.20;99.90;;;;;;4997489;28;20054;-72
2023/06/02 07:05:30;;;;;;;12.25;6.82;;;19.30;99.90;;;;;;5002884;28;20030;-72
2023/06/02 07:07:56;;;;;;;8.48;7.20;;;19.30;99.90;;;;;;4997074;28;20506;-73
2023/06/02 07:10:22;;;;;;;8.48;6.70;;;19.30;99.90;;;;;;4997087;28;20077;-72
2023/06/02 07:12:48;;;;;;;12.95;7.15;;;19.50;99.90;;;;;;4997128;28;20023;-72
2023/06/02 07:15:14;;;;;;;8.82;7.43;;;19.60;99.90;;;;;;4996918;28;20029;-71
2023/06/02 07:17:40;;;;;;;7.78;6.30;;;19.80;99.90;;;;;;4998689;28;20030;-72
2023/06/02 07:20:11;;;;;;;9.35;6.72;;;19.90;99.90;;;;;;5001293;28;20113;-71
2023/06/02 07:22:37;;;;;;;11.18;6.57;;;20.00;99.90;;;;;;4983533;28;20398;-71
2023/06/02 07:25:04;;;;;;;9.65;7.45;;;20.10;99.90;;;;;;5000920;28;20034;-71
2023/06/02 07:27:30;;;;;;;9.40;6.05;;;20.20;99.90;;;;;;5000761;28;20014;-71
2023/06/02 07:29:56;;;;;;;10.52;6.65;;;20.40;99.90;;;;;;5000678;28;20022;-71
2023/06/02 07:32:21;;;;;;;10.82;8.18;;;20.50;99.90;;;;;;5000714;28;20018;-71
2023/06/02 07:34:47;;;;;;;8.05;6.60;;;20.50;99.90;;;;;;4983476;28;20022;-70
2023/06/02 07:37:13;;;;;;;10.60;7.53;;;20.60;99.90;;;;;;5000662;28;20475;-71
2023/06/02 07:39:39;;;;;;;10.05;6.47;;;20.70;99.90;;;;;;5000760;28;20033;-71
2023/06/02 07:42:05;;;;;;;8.27;6.07;;;20.80;99.90;;;;;;5000462;28;20034;-71
2023/06/02 07:44:31;;;;;;;14.10;7.20;;;20.90;99.90;;;;;;4979900;28;20102;-71
2023/06/02 07:46:56;;;;;;;10.88;7.43;;;21.00;99.90;;;;;;4997538;28;20059;-72
2023/06/02 07:49:22;;;;;;;8.52;7.15;;;21.10;99.90;;;;;;5000419;28;20026;-72
2023/06/02 07:51:48;;;;;;;8.90;6.38;;;21.20;99.90;;;;;;4994166;28;20590;-72
2023/06/02 07:54:13;;;;;;;10.20;6.20;;;21.30;99.90;;;;;;5000702;28;20022;-72
2023/06/02 07:56:39;;;;;;;10.38;7.00;;;21.40;99.90;;;;;;5000206;28;20100;-72
2023/06/02 07:59:05;;;;;;;7.00;5.63;;;21.50;99.90;;;;;;5000444;28;20530;-72
2023/06/02 08:01:31;;;;;;;8.77;6.45;;;21.60;99.90;;;;;;5000268;28;20027;-72
2023/06/02 08:03:57;;;;;;;8.57;6.07;;;21.60;99.90;;;;;;5004160;28;20029;-72
2023/06/02 08:06:22;;;;;;;11.00;5.95;;;21.70;99.90;;;;;;5003189;28;20032;-72
2023/06/02 08:08:48;;;;;;;7.65;6.10;;;21.70;99.90;;;;;;5000401;28;20027;-71
2023/06/02 08:11:13;;;;;;;7.65;5.80;;;21.60;99.90;;;;;;5000068;28;20081;-72
2023/06/02 08:13:39;;;;;;;7.68;5.25;;;21.60;99.90;;;;;;5000125;28;20033;-71
2023/06/02 08:16:05;;;;;;;6.60;5.20;;;21.60;99.90;;;;;;4999938;28;20109;-72
2023/06/02 08:18:31;;;;;;;6.72;4.68;;;21.70;99.90;;;;;;5000160;28;20506;-72
2023/06/02 08:20:57;;;;;;;8.20;5.22;;;21.90;99.90;;;;;;4999987;28;20413;-72
2023/06/02 08:23:23;;;;;;;8.93;5.68;;;21.80;99.90;;;;;;4982428;28;20035;-72
2023/06/02 08:25:48;;;;;;;7.15;4.95;;;21.80;99.90;;;;;;4999777;28;20494;-72
2023/06/02 08:28:14;;;;;;;6.57;5.18;;;22.00;99.90;;;;;;4999551;28;20027;-72
2023/06/02 08:30:42;;;;;;;6.20;5.00;;;22.00;99.90;;;;;;4998994;28;20445;-72
2023/06/02 08:33:08;;;;;;;7.53;5.03;;;22.20;99.90;;;;;;4991695;28;20014;-73
2023/06/02 08:35:40;;;;;;;6.47;5.28;;;22.20;99.90;;;;;;4999743;28;20059;-72
2023/06/02 08:38:09;;;;;;;7.13;4.95;;;22.40;99.90;;;;;;4999701;28;20041;-72
2023/06/02 08:40:36;;;;;;;6.68;4.63;;;22.50;99.90;;;;;;4999486;28;20030;-72
2023/06/02 08:43:06;;;;;;;8.85;5.18;;;22.50;99.90;;;;;;4992681;28;20030;-72
2023/06/02 08:45:32;;;;;;;6.90;4.50;;;22.60;99.90;;;;;;4999169;28;20414;-73
2023/06/02 08:47:58;;;;;;;7.75;4.25;;;22.70;99.90;;;;;;4999403;28;20038;-72
2023/06/02 08:50:30;;;;;;;6.82;4.88;;;22.80;99.90;;;;;;4998540;28;20022;-72
2023/06/02 08:53:01;;;;;;;7.03;5.13;;;22.80;99.90;;;;;;4982539;28;20046;-72
2023/06/02 08:55:27;;;;;;;8.70;4.78;;;23.00;99.90;;;;;;4999398;28;20022;-73
2023/06/02 08:57:53;;;;;;;10.38;5.35;;;22.90;99.90;;;;;;4999065;28;20054;-72
2023/06/02 09:00:20;;;;;;;8.00;4.28;;;23.00;99.90;;;;;;4998368;28;20030;-72
2023/06/02 09:02:49;;;;;;;5.47;4.15;;;23.00;99.90;;;;;;4999303;28;20091;-72
2023/06/02 09:05:18;;;;;;;6.35;4.60;;;23.00;99.90;;;;;;4998670;28;20050;-72
2023/06/02 09:07:45;;;;;;;6.70;4.53;;;23.10;99.90;;;;;;4999233;28;20161;-72
2023/06/02 09:10:31;;;;;;;7.90;4.70;;;23.20;99.90;;;;;;4999001;28;20030;-72
2023/06/02 09:12:57;;;;;;;5.65;4.25;;;23.30;99.90;;;;;;4999150;28;20022;-72
2023/06/02 09:15:25;;;;;;;5.68;4.80;;;23.40;99.90;;;;;;4998668;28;20483;-71
2023/06/02 09:17:51;;;;;;;7.75;4.78;;;23.40;99.90;;;;;;4999398;28;20391;-72
2023/06/02 09:20:17;;;;;;;11.65;3.83;;;23.40;99.90;;;;;;4998818;28;20084;-71
2023/06/02 09:22:55;;;;;;;7.28;4.80;;;23.50;99.90;;;;;;4998896;28;20022;-70
2023/06/02 09:25:29;;;;;;;8.57;4.72;;;23.60;99.90;;;;;;4998619;28;20082;-72
2023/06/02 09:27:56;;;;;;;7.22;5.05;;;23.50;99.90;;;;;;4998579;28;20058;-72
2023/06/02 09:30:22;;;;;;;7.45;4.55;;;23.50;99.90;;;;;;4998669;28;20033;-71
2023/06/02 09:32:59;;;;;;;7.63;4.90;;;23.60;99.90;;;;;;4998627;28;20050;-71
2023/06/02 09:35:54;;;;;;;7.22;3.88;;;23.80;99.90;;;;;;4998772;28;20367;-71
2023/06/02 09:38:20;;;;;;;5.85;4.70;;;23.80;99.90;;;;;;4981954;28;20140;-71
2023/06/02 09:40:46;;;;;;;9.68;4.95;;;24.00;99.90;;;;;;4998069;28;20034;-72
2023/06/02 09:43:15;;;;;;;7.80;4.65;;;24.10;99.90;;;;;;4972776;28;20034;-72
2023/06/02 09:45:47;;;;;;;8.60;4.30;;;24.20;99.90;;;;;;4977652;28;20023;-71
2023/06/02 09:48:18;;;;;;;8.23;4.05;;;24.30;99.90;;;;;;4998539;28;20831;-71
2023/06/02 09:50:44;;;;;;;6.00;4.85;;;24.50;99.90;;;;;;4980841;28;20418;-71
2023/06/02 09:53:14;;;;;;;5.72;4.40;;;24.40;99.90;;;;;;4998686;28;20446;-71
2023/06/02 09:55:40;;;;;;;8.07;5.00;;;24.30;99.90;;;;;;4980567;28;20026;-71
2023/06/02 09:58:07;;;;;;;7.68;5.28;;;24.40;99.90;;;;;;4997936;28;20495;-71
2023/06/02 10:00:35;;;;;;;7.15;4.22;;;24.40;99.90;;;;;;4998096;28;20484;-72
2023/06/02 10:03:01;;;;;;;7.45;3.78;;;24.40;99.90;;;;;;4989445;28;20064;-72
2023/06/02 10:05:28;;;;;;;21.35;5.40;;;24.60;99.90;;;;;;5006591;28;20034;-72
2023/06/02 10:08:13;;;;;;;8.55;4.30;;;24.60;99.90;;;;;;4997742;28;20058;-72
2023/06/02 10:11:03;;;;;;;8.93;4.80;;;24.70;99.90;;;;;;4997855;28;20018;-72
2023/06/02 10:13:42;;;;;;;5.30;3.90;;;24.60;99.90;;;;;;4992610;28;20033;-72
2023/06/02 10:16:32;;;;;;;5.72;3.90;;;24.80;99.90;;;;;;4980186;28;20501;-72
2023/06/02 10:19:14;;;;;;;5.78;4.20;;;24.90;99.90;;;;;;4985830;28;20073;-73
2023/06/02 10:22:04;;;;;;;6.65;4.13;;;24.90;99.90;;;;;;4997777;28;20030;-72
2023/06/02 10:24:50;;;;;;;4.80;3.70;;;25.00;99.90;;;;;;4998134;28;20019;-72
2023/06/02 10:27:27;;;;;;;5.35;3.72;;;25.00;99.90;;;;;;4997514;28;20435;-73
2023/06/02 10:29:54;;;;;;;5.38;3.63;;;25.00;99.90;;;;;;4997462;28;20014;-72
2023/06/02 10:32:23;;;;;;;5.13;4.00;;;25.00;99.90;;;;;;4997926;28;20041;-73
2023/06/02 10:34:50;;;;;;;8.30;3.50;;;25.20;99.90;;;;;;4997436;28;20414;-72
2023/06/02 10:37:17;;;;;;;4.05;2.72;;;25.30;99.90;;;;;;4997645;28;20030;-73
2023/06/02 10:39:43;;;;;;;8.80;3.72;;;25.40;99.90;;;;;;4997515;28;20066;-73
2023/06/02 10:42:10;;;;;;;7.03;4.22;;;25.50;99.90;;;;;;4997656;28;20044;-72
2023/06/02 10:44:36;;;;;;;4.95;3.50;;;25.60;99.90;;;;;;4997507;28;20024;-73
2023/06/02 10:47:20;;;;;;;4.68;3.75;;;25.60;99.90;;;;;;4979914;28;20027;-73
2023/06/02 10:50:05;;;;;;;5.60;3.65;;;25.60;99.90;;;;;;4997542;28;20106;-74
2023/06/02 10:52:55;;;;;;;7.53;4.13;;;25.80;99.90;;;;;;4976299;28;20367;-74
2023/06/02 10:55:20;;;;;;;6.55;3.50;;;25.70;99.90;;;;;;4979037;28;20034;-74
2023/06/02 10:58:11;;;;;;;8.00;4.13;;;25.60;99.90;;;;;;4998390;28;20440;-73
2023/06/02 11:00:39;;;;;;;7.95;3.83;;;25.70;99.90;;;;;;5016820;28;20489;-74
2023/06/02 11:03:22;;;;;;;5.68;3.55;;;25.50;99.90;;;;;;5016935;28;20083;-74
2023/06/02 11:05:50;;;;;;;5.40;3.95;;;25.60;99.90;;;;;;4998882;28;20021;-73
2023/06/02 11:08:17;;;;;;;5.50;3.65;;;25.80;99.90;;;;;;5016965;28;20494;-74
2023/06/02 11:10:54;;;;;;;5.93;3.63;;;25.90;99.90;;;;;;5010961;28;20393;-74
2023/06/02 11:13:21;;;;;;;5.70;3.53;;;26.00;99.90;;;;;;5015727;28;20022;-73
2023/06/02 11:15:58;;;;;;;5.75;3.72;;;26.20;99.90;;;;;;5016714;28;20885;-73
2023/06/02 11:18:28;;;;;;;6.20;3.78;;;26.40;99.90;;;;;;5016617;28;20035;-73
2023/06/02 11:20:56;;;;;;;5.05;3.67;;;26.60;99.90;;;;;;5017137;28;20014;-74
2023/06/02 11:23:22;;;;;;;4.28;3.35;;;26.80;99.90;;;;;;5016576;28;20022;-74
2023/06/02 11:25:49;;;;;;;5.47;3.85;;;26.60;99.20;;;;;;5016851;28;20387;-73
2023/06/02 11:28:24;;;;;;;5.13;3.35;;;26.70;99.30;;;;;;5016659;28;20029;-73
2023/06/02 11:31:23;;;;;;;4.95;3.38;;;26.70;99.00;;;;;;5016619;28;20022;-73
2023/06/02 11:33:52;;;;;;;7.40;4.25;;;26.80;97.00;;;;;;5007593;28;20033;-73
2023/06/02 11:36:30;;;;;;;4.60;3.08;;;26.60;98.10;;;;;;5016631;28;20030;-73
2023/06/02 11:39:09;;;;;;;6.15;3.38;;;26.70;97.10;;;;;;5016799;28;20084;-73
2023/06/02 11:41:35;;;;;;;6.70;3.58;;;26.60;96.80;;;;;;5016481;28;20017;-73
2023/06/02 11:44:10;;;;;;;5.57;3.50;;;26.50;97.10;;;;;;4999111;28;20064;-74
2023/06/02 11:46:36;;;;;;;5.10;2.85;;;26.60;99.90;;;;;;5005718;28;20026;-73
2023/06/02 11:49:02;;;;;;;6.13;3.72;;;26.60;96.80;;;;;;5016560;28;20024;-73
2023/06/02 11:51:27;;;;;;;5.10;3.28;;;26.60;96.60;;;;;;5016797;28;20050;-74
2023/06/02 11:54:07;;;;;;;4.47;3.28;;;26.60;97.90;;;;;;5016431;28;20018;-74
2023/06/02 11:56:33;;;;;;;7.57;3.83;;;26.60;96.80;;;;;;5011254;28;20129;-74
2023/06/02 11:58:59;;;;;;;5.00;3.17;;;26.60;95.50;;;;;;4996829;28;20026;-74
2023/06/02 12:01:31;;;;;;;5.18;3.20;;;26.80;94.80;;;;;;4996578;28;20102;-74
2023/06/02 12:04:03;;;;;;;5.57;3.58;;;26.80;94.70;;;;;;5002833;28;20036;-74
2023/06/02 12:06:31;;;;;;;6.20;3.42;;;27.00;96.30;;;;;;5003171;28;20023;-74
2023/06/02 12:09:08;;;;;;;5.93;3.42;;;27.20;96.40;;;;;;4979501;28;20035;-74
2023/06/02 12:11:33;;;;;;;5.22;3.83;;;27.30;95.40;;;;;;4998693;28;20014;-74
2023/06/02 12:14:04;;;;;;;6.00;3.40;;;27.40;96.00;;;;;;5000282;28;20036;-73
2023/06/02 12:16:30;;;;;;;6.35;3.70;;;27.50;95.90;;;;;;4982220;28;20034;-74
2023/06/02 12:19:14;;;;;;;5.53;3.65;;;27.70;96.20;;;;;;5000300;28;20399;-74
2023/06/02 12:21:40;;;;;;;5.13;3.55;;;27.90;94.50;;;;;;4996844;28;20022;-74
2023/06/02 12:24:07;;;;;;;6.32;3.67;;;28.10;94.30;;;;;;4999949;28;20537;-74
2023/06/02 12:26:41;;;;;;;4.65;3.05;;;28.10;95.70;;;;;;4998575;28;20498;-74
2023/06/02 12:29:07;;;;;;;4.88;3.50;;;28.00;93.90;;;;;;4999734;28;20081;-73
2023/06/02 12:31:33;;;;;;;5.32;3.65;;;27.60;91.80;;;;;;4999636;28;20054;-73
2023/06/02 12:33:59;;;;;;;4.57;3.28;;;27.60;93.00;;;;;;4999725;28;20026;-73
2023/06/02 12:36:25;;;;;;;5.03;3.20;;;27.70;92.90;;;;;;4999773;28;20050;-73
2023/06/02 12:38:51;;;;;;;5.78;3.97;;;27.70;94.80;;;;;;4999618;28;20398;-73
2023/06/02 12:41:17;;;;;;;7.13;3.13;;;27.80;94.20;;;;;;4999471;28;20085;-73
2023/06/02 12:43:42;;;;;;;4.18;3.20;;;27.90;93.10;;;;;;4981980;28;20129;-73
2023/06/02 12:46:11;;;;;;;5.00;2.75;;;28.10;93.20;;;;;;4999304;28;20394;-73